Time;durP1;ratioP1;P1;durP2;ratioP2;P2;SDS_P1;SDS_P2;PMS_P1;PMS_P2;Temp;Humidity;BMP_temperature;BMP_pressure;BME280_temperature;BME280_humidity;BME280_pressure;Samples;Min_cycle;Max_cycle;Signal;HPM_P1;HPM_P2
2021/09/03 00:02:07;;;;;;;13.45;8.45;;;11.20;99.90;;;;;;5094288;28;20105;-74
2021/09/03 00:04:33;;;;;;;13.27;8.55;;;11.20;99.90;;;;;;5094828;28;20044;-74
2021/09/03 00:07:00;;;;;;;10.25;7.03;;;11.10;99.90;;;;;;5093631;28;20113;-74
2021/09/03 00:09:27;;;;;;;12.05;7.85;;;11.10;99.90;;;;;;5094788;28;20113;-75
2021/09/03 00:11:53;;;;;;;17.58;8.63;;;11.00;99.90;;;;;;5094827;28;20113;-75
2021/09/03 00:14:20;;;;;;;12.75;7.90;;;11.00;99.90;;;;;;5095935;28;20110;-74
2021/09/03 00:16:48;;;;;;;11.48;7.80;;;11.00;99.90;;;;;;5094775;28;20094;-75
2021/09/03 00:19:17;;;;;;;10.80;7.32;;;11.00;99.90;;;;;;5094612;28;20043;-76
2021/09/03 00:21:43;;;;;;;14.60;7.75;;;11.00;99.90;;;;;;5094150;28;20046;-75
2021/09/03 00:24:10;;;;;;;13.57;8.43;;;10.90;99.90;;;;;;5074546;28;20049;-74
2021/09/03 00:26:37;;;;;;;11.80;7.38;;;10.90;99.90;;;;;;5088255;28;20320;-74
2021/09/03 00:29:04;;;;;;;12.65;7.30;;;10.90;99.90;;;;;;5094113;28;20044;-74
2021/09/03 00:31:31;;;;;;;14.23;8.13;;;10.90;99.90;;;;;;5092781;28;20491;-75
2021/09/03 00:33:59;;;;;;;13.30;7.78;;;10.90;99.90;;;;;;5088451;28;20102;-74
2021/09/03 00:36:25;;;;;;;11.45;6.45;;;10.80;99.90;;;;;;5086900;28;20059;-75
2021/09/03 00:38:52;;;;;;;11.82;6.75;;;10.80;99.90;;;;;;5093565;28;20484;-74
2021/09/03 00:41:18;;;;;;;11.35;7.45;;;10.80;99.90;;;;;;5094421;28;20090;-74
2021/09/03 00:43:47;;;;;;;13.02;7.95;;;10.70;99.90;;;;;;5093744;28;20427;-74
2021/09/03 00:46:13;;;;;;;12.02;7.78;;;10.70;99.90;;;;;;5093824;28;20097;-74
2021/09/03 00:48:40;;;;;;;13.10;7.38;;;10.70;99.90;;;;;;5093628;28;20044;-75
2021/09/03 00:51:08;;;;;;;10.63;7.53;;;10.70;99.90;;;;;;5093992;28;20324;-75
2021/09/03 00:53:36;;;;;;;11.75;7.72;;;10.60;99.90;;;;;;5094320;28;20041;-75
2021/09/03 00:56:04;;;;;;;15.82;9.15;;;10.60;99.90;;;;;;5093768;28;20035;-75
2021/09/03 00:58:30;;;;;;;11.88;7.72;;;10.60;99.90;;;;;;5093078;28;20462;-75
2021/09/03 01:00:57;;;;;;;10.77;7.25;;;10.60;99.90;;;;;;5073645;28;20122;-75
2021/09/03 01:03:23;;;;;;;12.25;6.10;;;10.60;99.90;;;;;;5089425;28;20044;-76
2021/09/03 01:05:51;;;;;;;10.00;8.48;;;10.60;99.90;;;;;;5091459;28;20538;-75
2021/09/03 01:08:19;;;;;;;18.27;9.27;;;10.60;99.90;;;;;;5093126;28;20040;-75
2021/09/03 01:10:45;;;;;;;12.18;7.95;;;10.50;99.90;;;;;;5080459;28;20097;-75
2021/09/03 01:13:12;;;;;;;12.43;8.32;;;10.60;99.90;;;;;;5090903;28;20078;-75
2021/09/03 01:15:39;;;;;;;11.13;7.22;;;10.60;99.90;;;;;;5093302;28;20098;-76
2021/09/03 01:18:06;;;;;;;12.07;7.28;;;10.50;99.90;;;;;;5078873;28;20044;-77
2021/09/03 01:20:33;;;;;;;9.98;6.93;;;10.50;99.90;;;;;;5078232;28;20431;-76
2021/09/03 01:23:01;;;;;;;11.10;6.65;;;10.50;99.90;;;;;;5078193;28;20389;-76
2021/09/03 01:25:34;;;;;;;10.75;6.68;;;10.40;99.90;;;;;;5091762;28;20040;-76
2021/09/03 01:28:01;;;;;;;11.30;7.18;;;10.30;99.90;;;;;;5091867;28;20040;-76
2021/09/03 01:30:27;;;;;;;13.43;7.50;;;10.40;99.90;;;;;;5092633;28;20036;-76
2021/09/03 01:32:54;;;;;;;9.50;6.93;;;10.40;99.90;;;;;;5092824;28;20450;-76
2021/09/03 01:35:20;;;;;;;10.52;7.00;;;10.30;99.90;;;;;;5087933;28;20044;-76
2021/09/03 01:37:47;;;;;;;12.27;7.65;;;10.20;99.90;;;;;;5085137;28;20048;-76
2021/09/03 01:40:15;;;;;;;9.98;7.60;;;10.20;99.90;;;;;;5092684;28;20097;-76
2021/09/03 01:42:42;;;;;;;10.25;7.20;;;10.20;99.90;;;;;;5092499;28;20048;-76
2021/09/03 01:45:10;;;;;;;12.80;7.32;;;10.00;99.90;;;;;;5092858;28;20040;-76
2021/09/03 01:47:36;;;;;;;11.98;7.90;;;10.00;99.90;;;;;;5092894;28;20098;-76
2021/09/03 01:50:04;;;;;;;11.90;7.82;;;10.00;99.90;;;;;;5092078;28;20089;-76
2021/09/03 01:52:31;;;;;;;13.90;8.25;;;10.00;99.90;;;;;;5092760;28;20078;-76
2021/09/03 01:54:58;;;;;;;14.27;7.93;;;10.10;99.90;;;;;;5091557;28;20677;-76
2021/09/03 01:57:26;;;;;;;9.45;7.07;;;10.10;99.90;;;;;;5092656;28;20105;-75
2021/09/03 01:59:52;;;;;;;9.00;7.65;;;10.00;99.90;;;;;;5090493;28;20093;-76
2021/09/03 02:02:19;;;;;;;13.35;7.80;;;10.10;99.90;;;;;;5092622;28;20446;-75
2021/09/03 02:04:45;;;;;;;12.63;7.95;;;10.10;99.90;;;;;;5092973;28;20040;-76
2021/09/03 02:07:12;;;;;;;13.98;8.18;;;10.00;99.90;;;;;;5092439;28;20043;-76
2021/09/03 02:09:38;;;;;;;11.32;7.38;;;10.00;99.90;;;;;;5091964;28;20450;-76
2021/09/03 02:12:05;;;;;;;9.70;7.70;;;10.10;99.90;;;;;;5092637;28;20352;-75
2021/09/03 02:14:33;;;;;;;12.43;7.47;;;10.10;99.90;;;;;;5092184;28;20040;-75
2021/09/03 02:17:00;;;;;;;13.43;7.93;;;10.10;99.90;;;;;;5079368;28;20064;-75
2021/09/03 02:19:27;;;;;;;11.00;7.97;;;10.10;99.90;;;;;;5072034;28;20091;-76
2021/09/03 02:21:53;;;;;;;14.35;8.40;;;10.10;99.90;;;;;;5091425;28;20089;-76
2021/09/03 02:24:20;;;;;;;13.32;8.95;;;10.00;99.90;;;;;;5092410;28;20040;-76
2021/09/03 02:26:46;;;;;;;11.48;7.97;;;10.00;99.90;;;;;;5092677;28;20048;-76
2021/09/03 02:29:13;;;;;;;13.98;8.85;;;10.00;99.90;;;;;;5091634;28;20048;-76
2021/09/03 02:31:41;;;;;;;11.75;8.70;;;10.00;99.90;;;;;;5091851;28;20097;-76
2021/09/03 02:34:07;;;;;;;14.27;8.57;;;10.00;99.90;;;;;;5092233;28;20466;-75
2021/09/03 02:36:34;;;;;;;11.48;7.25;;;10.00;99.90;;;;;;5092289;28;20044;-75
2021/09/03 02:39:01;;;;;;;13.30;7.95;;;10.00;99.90;;;;;;5071371;28;20048;-75
2021/09/03 02:41:27;;;;;;;14.02;8.65;;;10.00;99.90;;;;;;5071710;28;20558;-75
2021/09/03 02:43:54;;;;;;;11.95;8.55;;;9.90;99.90;;;;;;5073600;28;20048;-76
2021/09/03 02:46:20;;;;;;;12.77;7.75;;;9.80;99.90;;;;;;5090849;28;20385;-76
2021/09/03 02:48:49;;;;;;;12.35;8.13;;;9.80;99.90;;;;;;5088375;28;20041;-76
2021/09/03 02:51:15;;;;;;;14.63;9.35;;;9.80;99.90;;;;;;5090707;28;20459;-77
2021/09/03 02:53:42;;;;;;;14.30;8.65;;;9.90;99.90;;;;;;5091297;28;20048;-76
2021/09/03 02:56:09;;;;;;;13.52;8.55;;;9.90;99.90;;;;;;5091839;28;20044;-76
2021/09/03 02:58:35;;;;;;;16.00;8.85;;;9.90;99.90;;;;;;5091279;28;20040;-76
2021/09/03 03:01:02;;;;;;;14.20;7.95;;;9.80;99.90;;;;;;5091328;28;20044;-76
2021/09/03 03:03:29;;;;;;;11.68;7.50;;;9.80;99.90;;;;;;5091969;28;20089;-77
2021/09/03 03:05:57;;;;;;;12.82;8.10;;;9.70;99.90;;;;;;5091476;28;20089;-77
2021/09/03 03:08:23;;;;;;;16.55;9.55;;;9.80;99.90;;;;;;5091244;28;20048;-76
2021/09/03 03:10:50;;;;;;;16.60;10.77;;;9.90;99.90;;;;;;5091689;28;20096;-77
2021/09/03 03:13:24;;;;;;;15.27;8.75;;;9.90;99.90;;;;;;5091108;28;20048;-76
2021/09/03 03:15:52;;;;;;;11.13;7.75;;;9.90;99.90;;;;;;5091622;28;20066;-76
2021/09/03 03:18:19;;;;;;;14.48;9.52;;;9.90;99.90;;;;;;5078772;28;20044;-75
2021/09/03 03:20:47;;;;;;;15.55;9.40;;;9.90;99.90;;;;;;5083149;28;20082;-76
2021/09/03 03:23:15;;;;;;;12.57;9.40;;;9.90;99.90;;;;;;5091099;28;20052;-75
2021/09/03 03:25:42;;;;;;;12.88;8.73;;;9.90;99.90;;;;;;5091409;28;20044;-75
2021/09/03 03:28:09;;;;;;;15.10;9.13;;;9.90;99.90;;;;;;5091572;28;20048;-75
2021/09/03 03:30:36;;;;;;;15.98;9.65;;;9.90;99.90;;;;;;5090390;28;20044;-76
2021/09/03 03:33:03;;;;;;;15.13;8.15;;;10.00;99.90;;;;;;5091582;28;20040;-75
2021/09/03 03:35:29;;;;;;;20.42;10.68;;;10.10;99.90;;;;;;5090879;28;20040;-75
2021/09/03 03:37:56;;;;;;;17.58;9.90;;;10.00;99.90;;;;;;5090916;28;20101;-75
2021/09/03 03:40:24;;;;;;;21.98;11.80;;;10.10;99.90;;;;;;5079269;28;20045;-76
2021/09/03 03:42:51;;;;;;;13.27;8.45;;;10.10;99.90;;;;;;5071642;28;20074;-77
2021/09/03 03:45:18;;;;;;;15.32;8.85;;;10.10;99.90;;;;;;5074147;28;20036;-76
2021/09/03 03:47:44;;;;;;;17.33;8.98;;;10.00;99.90;;;;;;5091497;28;20044;-75
2021/09/03 03:50:12;;;;;;;15.05;8.63;;;10.00;99.90;;;;;;5090035;28;20048;-75
2021/09/03 03:52:39;;;;;;;16.88;9.30;;;10.00;99.90;;;;;;5091135;28;20050;-75
2021/09/03 03:55:06;;;;;;;21.33;8.88;;;9.90;99.90;;;;;;5091132;28;20542;-76
2021/09/03 03:57:35;;;;;;;18.10;8.88;;;9.90;99.90;;;;;;5091488;28;20048;-76
2021/09/03 04:00:01;;;;;;;14.75;7.90;;;9.90;99.90;;;;;;5090075;28;20147;-75
2021/09/03 04:02:28;;;;;;;20.50;10.07;;;9.90;99.90;;;;;;5087352;28;20040;-75
2021/09/03 04:04:55;;;;;;;16.88;8.77;;;9.90;99.90;;;;;;5092103;28;20090;-76
2021/09/03 04:07:21;;;;;;;16.48;9.15;;;9.90;99.90;;;;;;5095050;28;20097;-75
2021/09/03 04:09:48;;;;;;;17.13;11.23;;;9.80;99.90;;;;;;5093491;28;20655;-77
2021/09/03 04:12:15;;;;;;;20.40;10.77;;;9.90;99.90;;;;;;5095131;28;20044;-76
2021/09/03 04:14:42;;;;;;;15.50;9.27;;;9.90;99.90;;;;;;5095109;28;20044;-77
2021/09/03 04:17:09;;;;;;;17.05;9.27;;;9.90;99.90;;;;;;5094321;28;20044;-76
2021/09/03 04:19:36;;;;;;;21.92;10.57;;;9.90;99.90;;;;;;5092177;28;20107;-76
2021/09/03 04:22:02;;;;;;;22.17;10.77;;;9.80;99.90;;;;;;5094394;28;20040;-76
2021/09/03 04:24:29;;;;;;;19.02;9.55;;;9.80;99.90;;;;;;5090716;28;20036;-76
2021/09/03 04:26:56;;;;;;;15.20;8.98;;;9.90;99.90;;;;;;5091723;28;20107;-77
2021/09/03 04:29:23;;;;;;;14.25;11.32;;;9.90;99.90;;;;;;5091285;28;20040;-77
2021/09/03 04:31:51;;;;;;;19.25;9.90;;;9.90;99.90;;;;;;5077911;28;20463;-77
2021/09/03 04:34:18;;;;;;;15.40;8.90;;;9.90;99.90;;;;;;5086882;28;20071;-77
2021/09/03 04:36:45;;;;;;;22.63;11.05;;;9.90;99.90;;;;;;5094198;28;20048;-77
2021/09/03 04:39:11;;;;;;;19.15;10.23;;;10.00;99.90;;;;;;5094027;28;20040;-76
2021/09/03 04:41:38;;;;;;;22.75;12.15;;;10.10;99.90;;;;;;5094353;28;20067;-77
2021/09/03 04:44:05;;;;;;;17.73;9.23;;;10.10;99.90;;;;;;5092648;28;20044;-77
2021/09/03 04:46:32;;;;;;;24.45;10.75;;;10.20;99.90;;;;;;5091698;28;20093;-77
2021/09/03 04:49:00;;;;;;;23.42;11.88;;;10.30;99.90;;;;;;5093977;28;20101;-77
2021/09/03 04:51:26;;;;;;;17.58;9.80;;;10.40;99.90;;;;;;5094439;28;20048;-77
2021/09/03 04:53:53;;;;;;;19.70;10.73;;;10.40;99.90;;;;;;5094450;28;20047;-75
2021/09/03 04:56:19;;;;;;;18.90;10.85;;;10.50;99.90;;;;;;5094130;28;20113;-75
2021/09/03 04:58:46;;;;;;;19.50;10.10;;;10.40;99.90;;;;;;5092439;28;20113;-75
2021/09/03 05:01:13;;;;;;;21.50;12.05;;;10.40;99.90;;;;;;5093676;28;20044;-75
2021/09/03 05:03:39;;;;;;;24.95;12.50;;;10.50;99.90;;;;;;5093795;28;20048;-75
2021/09/03 05:06:07;;;;;;;21.48;12.50;;;10.50;99.90;;;;;;5093441;28;20044;-75
2021/09/03 05:08:34;;;;;;;24.80;12.02;;;10.60;99.90;;;;;;5093264;28;20051;-75
2021/09/03 05:11:01;;;;;;;20.05;11.15;;;10.70;99.90;;;;;;5093326;28;20040;-75
2021/09/03 05:13:27;;;;;;;18.40;11.25;;;10.70;99.90;;;;;;5093214;28;20085;-75
2021/09/03 05:15:54;;;;;;;18.48;10.23;;;10.80;99.90;;;;;;5092815;28;20504;-75
2021/09/03 05:18:21;;;;;;;22.67;10.45;;;10.80;99.90;;;;;;5093281;28;20117;-75
2021/09/03 05:20:48;;;;;;;19.75;11.55;;;10.80;99.90;;;;;;5078727;28;20051;-74
2021/09/03 05:23:15;;;;;;;19.58;10.75;;;10.90;99.90;;;;;;5073404;28;20044;-74
2021/09/03 05:25:42;;;;;;;21.67;11.85;;;11.00;99.90;;;;;;5084088;28;20454;-75
2021/09/03 05:28:09;;;;;;;25.15;13.15;;;11.10;99.90;;;;;;5093179;28;20048;-75
2021/09/03 05:30:35;;;;;;;18.70;12.05;;;11.20;99.90;;;;;;5092362;28;20450;-76
2021/09/03 05:33:02;;;;;;;26.35;12.77;;;11.40;99.90;;;;;;5093230;28;20044;-76
2021/09/03 05:35:29;;;;;;;28.23;12.90;;;11.50;99.90;;;;;;5093746;28;20036;-75
2021/09/03 05:37:56;;;;;;;23.73;13.65;;;11.70;99.90;;;;;;5092706;28;20411;-75
2021/09/03 05:40:24;;;;;;;22.27;13.63;;;11.80;99.90;;;;;;5092119;28;20044;-74
2021/09/03 05:42:51;;;;;;;27.77;13.20;;;11.90;99.90;;;;;;5092612;28;20105;-74
2021/09/03 05:45:18;;;;;;;25.13;13.48;;;12.00;99.90;;;;;;5092137;28;20097;-74
2021/09/03 05:47:45;;;;;;;21.83;13.38;;;12.20;99.90;;;;;;5092896;28;20397;-74
2021/09/03 05:50:13;;;;;;;23.90;13.65;;;12.30;99.90;;;;;;5091553;28;20044;-75
2021/09/03 05:52:40;;;;;;;24.85;13.90;;;12.40;99.90;;;;;;5092677;28;20044;-75
2021/09/03 05:55:07;;;;;;;24.20;13.30;;;12.70;99.90;;;;;;5092638;28;20427;-75
2021/09/03 05:57:35;;;;;;;22.60;12.70;;;13.00;99.90;;;;;;5089545;28;20037;-76
2021/09/03 06:00:02;;;;;;;21.52;12.35;;;13.20;99.90;;;;;;5086237;28;20435;-77
2021/09/03 06:02:29;;;;;;;56.55;27.98;;;13.40;99.90;;;;;;5092793;28;20055;-77
2021/09/03 06:04:56;;;;;;;25.30;12.85;;;13.60;99.90;;;;;;5083757;28;20094;-77
2021/09/03 06:07:22;;;;;;;24.83;13.18;;;13.70;99.90;;;;;;5090981;28;20538;-76
2021/09/03 06:09:49;;;;;;;18.75;12.32;;;13.80;99.90;;;;;;5091684;28;20565;-76
2021/09/03 06:12:16;;;;;;;18.95;11.55;;;14.10;99.90;;;;;;5091884;28;20048;-74
2021/09/03 06:14:44;;;;;;;22.10;12.90;;;14.30;99.90;;;;;;5092670;28;20044;-76
2021/09/03 06:17:12;;;;;;;45.72;25.42;;;14.60;99.90;;;;;;5092018;28;20321;-76
2021/09/03 06:19:38;;;;;;;34.55;19.63;;;14.70;99.90;;;;;;5090819;28;20120;-76
2021/09/03 06:22:05;;;;;;;20.27;10.15;;;15.10;99.90;;;;;;5092478;28;20040;-76
2021/09/03 06:24:32;;;;;;;16.45;10.05;;;15.30;99.90;;;;;;5090280;28;20113;-75
2021/09/03 06:27:00;;;;;;;23.83;12.50;;;15.60;99.90;;;;;;5078095;28;20044;-76
2021/09/03 06:29:38;;;;;;;17.80;10.95;;;15.70;99.90;;;;;;5077760;28;20094;-72
2021/09/03 06:32:07;;;;;;;18.38;11.95;;;16.10;99.90;;;;;;5077483;28;20051;-73
2021/09/03 06:34:34;;;;;;;24.52;13.98;;;16.20;99.90;;;;;;5080236;28;20051;-74
2021/09/03 06:37:01;;;;;;;17.33;9.63;;;16.60;99.90;;;;;;5092141;28;20090;-74
2021/09/03 06:39:27;;;;;;;19.45;10.75;;;17.10;99.90;;;;;;5079702;28;20447;-75
2021/09/03 06:41:54;;;;;;;27.67;15.80;;;17.10;99.90;;;;;;5080019;28;20089;-76
2021/09/03 06:44:20;;;;;;;23.05;12.88;;;17.60;99.90;;;;;;5077465;28;20040;-75
2021/09/03 06:46:47;;;;;;;15.82;10.43;;;17.80;99.90;;;;;;5077519;28;20121;-75
2021/09/03 06:49:15;;;;;;;16.25;9.65;;;17.70;99.90;;;;;;5078272;28;20562;-74
2021/09/03 06:51:42;;;;;;;13.48;8.00;;;18.10;99.90;;;;;;5079248;28;20039;-73
2021/09/03 06:54:08;;;;;;;14.10;9.38;;;18.30;99.90;;;;;;5076127;28;20562;-74
2021/09/03 06:56:35;;;;;;;18.95;11.95;;;18.40;99.90;;;;;;5086947;28;20089;-74
2021/09/03 06:59:02;;;;;;;19.55;12.95;;;18.50;99.90;;;;;;5079120;28;20478;-75
2021/09/03 07:01:29;;;;;;;15.70;8.77;;;18.80;99.90;;;;;;5086598;28;20048;-74
2021/09/03 07:03:56;;;;;;;16.85;9.20;;;18.70;99.90;;;;;;5091679;28;20484;-74
2021/09/03 07:06:24;;;;;;;32.55;18.73;;;18.60;99.90;;;;;;5090463;28;20086;-74
2021/09/03 07:08:50;;;;;;;13.00;8.75;;;19.00;99.90;;;;;;5075102;28;20500;-74
2021/09/03 07:11:19;;;;;;;14.80;9.95;;;19.10;99.90;;;;;;5075731;28;20382;-73
2021/09/03 07:13:46;;;;;;;14.20;8.20;;;19.20;99.90;;;;;;5079866;28;20044;-73
2021/09/03 07:16:12;;;;;;;12.15;8.20;;;18.80;99.90;;;;;;5079324;28;20041;-73
2021/09/03 07:18:39;;;;;;;11.48;7.80;;;19.10;99.90;;;;;;5077241;28;20040;-72
2021/09/03 07:21:06;;;;;;;13.73;7.60;;;19.60;99.90;;;;;;5080464;28;20570;-72
2021/09/03 07:23:34;;;;;;;16.38;7.68;;;19.80;99.90;;;;;;5077836;28;20051;-73
2021/09/03 07:26:01;;;;;;;11.55;7.25;;;20.50;99.90;;;;;;5077308;28;20052;-72
2021/09/03 07:28:28;;;;;;;10.45;7.72;;;20.80;99.90;;;;;;5078256;28;20052;-72
2021/09/03 07:30:55;;;;;;;9.98;7.70;;;21.40;99.90;;;;;;5076601;28;20040;-76
2021/09/03 07:33:22;;;;;;;14.85;9.20;;;21.20;99.90;;;;;;5077549;28;20044;-76
2021/09/03 07:35:49;;;;;;;10.32;8.18;;;20.70;99.90;;;;;;5078203;28;20043;-74
2021/09/03 07:38:16;;;;;;;14.55;9.40;;;20.80;99.90;;;;;;5083070;28;20040;-70
2021/09/03 07:40:44;;;;;;;13.57;7.65;;;21.40;99.90;;;;;;5086629;28;20118;-74
2021/09/03 07:43:11;;;;;;;11.25;7.55;;;22.00;99.90;;;;;;5079089;28;20093;-73
2021/09/03 07:45:39;;;;;;;14.25;7.70;;;22.10;99.90;;;;;;5095427;28;20087;-72
2021/09/03 07:48:07;;;;;;;11.90;8.05;;;21.50;99.90;;;;;;5095106;28;20105;-76
2021/09/03 07:50:34;;;;;;;11.50;8.50;;;21.70;99.90;;;;;;5095177;28;20101;-76
2021/09/03 07:53:01;;;;;;;11.73;7.68;;;21.90;99.90;;;;;;5095501;28;20055;-74
2021/09/03 07:55:28;;;;;;;11.63;8.00;;;22.10;99.90;;;;;;5095523;28;20044;-74
2021/09/03 07:57:56;;;;;;;11.43;6.88;;;22.10;99.90;;;;;;5095007;28;20408;-81
2021/09/03 08:00:22;;;;;;;10.10;6.80;;;22.80;99.90;;;;;;5094667;28;20048;-74
2021/09/03 08:02:49;;;;;;;10.85;7.88;;;22.80;99.90;;;;;;5094986;28;20101;-78
2021/09/03 08:05:16;;;;;;;11.13;7.00;;;22.90;99.90;;;;;;5095300;28;20388;-76
2021/09/03 08:07:42;;;;;;;13.50;8.23;;;23.40;99.90;;;;;;5095158;28;20040;-75
2021/09/03 08:10:10;;;;;;;10.48;7.55;;;23.60;99.90;;;;;;5094765;28;20097;-75
2021/09/03 08:12:37;;;;;;;10.07;7.28;;;23.40;99.90;;;;;;5095076;28;20043;-75
2021/09/03 08:15:06;;;;;;;10.50;7.25;;;22.90;99.90;;;;;;5095345;28;20392;-74
2021/09/03 08:17:34;;;;;;;15.50;7.35;;;23.50;99.90;;;;;;5095067;28;20048;-74
2021/09/03 08:20:01;;;;;;;10.63;6.45;;;24.40;99.90;;;;;;5094340;28;20041;-73
2021/09/03 08:22:28;;;;;;;10.98;7.05;;;24.90;99.90;;;;;;5094854;28;20044;-73
2021/09/03 08:24:55;;;;;;;9.57;6.40;;;24.80;99.90;;;;;;5094690;28;20044;-73
2021/09/03 08:27:22;;;;;;;10.70;8.30;;;24.20;99.90;;;;;;5094612;28;20488;-74
2021/09/03 08:29:48;;;;;;;11.00;6.60;;;24.10;99.90;;;;;;5094213;28;20048;-75
2021/09/03 08:32:16;;;;;;;10.73;7.18;;;24.30;99.90;;;;;;5096208;28;20086;-81
2021/09/03 08:34:44;;;;;;;11.75;7.10;;;24.40;99.90;;;;;;5094775;28;20512;-74
2021/09/03 08:37:12;;;;;;;9.13;6.78;;;24.50;99.90;;;;;;5094562;28;20450;-75
2021/09/03 08:39:38;;;;;;;11.57;7.72;;;24.50;99.90;;;;;;5094340;28;20459;-75
2021/09/03 08:42:06;;;;;;;11.30;7.85;;;23.40;99.60;;;;;;5094294;28;20040;-75
2021/09/03 08:44:34;;;;;;;9.18;6.68;;;23.10;99.90;;;;;;5094621;28;20071;-75
2021/09/03 08:47:01;;;;;;;11.60;6.65;;;23.90;99.90;;;;;;5094297;28;20097;-77
2021/09/03 08:49:29;;;;;;;10.68;6.93;;;24.30;99.90;;;;;;5093804;28;20066;-75
2021/09/03 08:51:58;;;;;;;13.20;6.97;;;24.70;99.20;;;;;;5093252;28;20073;-77
2021/09/03 08:54:25;;;;;;;12.25;6.32;;;25.20;98.40;;;;;;5094799;28;20048;-79
2021/09/03 08:56:52;;;;;;;9.98;6.28;;;25.90;95.40;;;;;;5094029;28;20048;-75
2021/09/03 08:59:18;;;;;;;9.55;6.68;;;25.90;93.30;;;;;;5093812;28;20040;-73
2021/09/03 09:02:10;;;;;;;10.30;6.93;;;25.70;92.10;;;;;;5093985;28;20074;-74
2021/09/03 09:04:38;;;;;;;13.77;7.20;;;25.50;94.50;;;;;;5094058;28;20056;-74
2021/09/03 09:07:05;;;;;;;5.90;5.18;;;26.30;93.20;;;;;;5093800;28;20051;-74
2021/09/03 09:09:32;;;;;;;9.88;5.95;;;27.00;91.50;;;;;;5093141;28;20044;-73
2021/09/03 09:12:03;;;;;;;9.13;5.47;;;26.90;87.70;;;;;;5094028;28;20094;-78
2021/09/03 09:14:30;;;;;;;8.80;5.65;;;26.80;88.80;;;;;;5093861;28;20040;-73
2021/09/03 09:17:02;;;;;;;10.23;6.72;;;27.00;90.60;;;;;;5093980;28;20114;-74
2021/09/03 09:19:45;;;;;;;10.57;6.95;;;26.90;88.50;;;;;;5093147;28;20052;-74
2021/09/03 09:22:12;;;;;;;9.82;6.20;;;26.60;89.30;;;;;;5093788;28;20385;-74
2021/09/03 09:24:38;;;;;;;8.52;6.05;;;27.30;85.50;;;;;;5093735;28;20044;-75
2021/09/03 09:27:05;;;;;;;9.52;6.32;;;27.60;84.40;;;;;;5093657;28;20101;-74
2021/09/03 09:29:37;;;;;;;6.95;5.47;;;28.20;82.20;;;;;;5092972;28;20048;-73
2021/09/03 09:32:06;;;;;;;9.77;5.97;;;27.90;81.60;;;;;;5093976;28;20044;-74
2021/09/03 09:34:35;;;;;;;7.43;5.75;;;27.90;80.60;;;;;;5093369;28;20064;-74
2021/09/03 09:37:04;;;;;;;6.25;5.57;;;27.80;80.10;;;;;;5093430;28;20070;-74
2021/09/03 09:39:42;;;;;;;8.95;5.55;;;27.50;80.60;;;;;;5093110;28;20044;-74
2021/09/03 09:42:20;;;;;;;7.50;5.97;;;27.50;79.50;;;;;;5093333;28;20052;-74
2021/09/03 09:44:47;;;;;;;7.45;5.40;;;28.10;79.60;;;;;;5093168;28;20089;-74
2021/09/03 09:47:13;;;;;;;8.90;6.45;;;27.20;79.60;;;;;;5093513;28;20056;-74
2021/09/03 09:49:41;;;;;;;8.25;4.95;;;26.70;79.40;;;;;;5092295;28;20474;-74
2021/09/03 09:52:09;;;;;;;7.05;5.07;;;26.70;84.10;;;;;;5093169;28;20067;-74
2021/09/03 09:54:35;;;;;;;8.77;5.40;;;27.10;81.60;;;;;;5093089;28;20048;-74
2021/09/03 09:57:03;;;;;;;10.93;5.47;;;27.60;80.80;;;;;;5092976;28;20048;-78
2021/09/03 09:59:32;;;;;;;8.57;6.38;;;27.80;77.50;;;;;;5092403;28;20044;-77
2021/09/03 10:02:00;;;;;;;9.50;5.65;;;27.40;80.10;;;;;;5092812;28;20040;-78
2021/09/03 10:04:29;;;;;;;8.05;5.05;;;27.40;76.00;;;;;;5093098;28;20048;-75
2021/09/03 10:06:59;;;;;;;9.48;6.07;;;27.60;76.70;;;;;;5092783;28;20043;-75
2021/09/03 10:09:27;;;;;;;12.70;8.98;;;27.80;77.00;;;;;;5092226;28;20610;-74
2021/09/03 10:11:56;;;;;;;11.07;6.68;;;28.50;77.10;;;;;;5092482;28;20044;-73
2021/09/03 10:14:26;;;;;;;11.68;7.55;;;29.20;75.40;;;;;;5092847;28;20097;-73
2021/09/03 10:16:54;;;;;;;8.60;4.97;;;30.10;71.40;;;;;;5092657;28;20055;-74
2021/09/03 10:19:24;;;;;;;7.68;6.18;;;30.00;70.30;;;;;;5092214;28;20097;-74
2021/09/03 10:21:54;;;;;;;5.82;4.82;;;29.70;69.40;;;;;;5092040;28;20044;-73
2021/09/03 10:24:26;;;;;;;10.02;5.97;;;29.00;69.10;;;;;;5094927;28;20087;-74
2021/09/03 10:26:56;;;;;;;6.60;5.97;;;28.10;72.30;;;;;;5092534;28;20048;-73
2021/09/03 10:29:31;;;;;;;9.90;6.13;;;27.20;75.20;;;;;;5091815;28;20054;-71
2021/09/03 10:32:23;;;;;;;10.82;6.22;;;27.20;73.70;;;;;;5092349;28;20044;-73
2021/09/03 10:34:54;;;;;;;7.35;4.65;;;27.40;77.10;;;;;;5092189;28;20075;-73
2021/09/03 10:37:22;;;;;;;;;;;28.00;71.20;;;;;;5092892;28;20384;-74
2021/09/03 10:39:52;;;;;;;6.68;4.85;;;28.60;72.40;;;;;;5091665;28;19920;-74
2021/09/03 10:42:58;;;;;;;6.57;5.28;;;29.00;70.50;;;;;;5092627;28;20097;-74
2021/09/03 10:45:28;;;;;;;10.63;6.07;;;29.00;72.30;;;;;;5092011;28;20048;-73
2021/09/03 10:48:08;;;;;;;9.73;5.50;;;29.50;70.10;;;;;;5092205;28;20565;-74
2021/09/03 10:50:36;;;;;;;8.23;5.45;;;30.40;69.70;;;;;;5092351;28;20048;-73
2021/09/03 10:53:33;;;;;;;11.13;6.93;;;30.50;64.10;;;;;;5092172;28;20195;-75
2021/09/03 10:56:12;;;;;;;6.85;4.45;;;30.30;69.20;;;;;;5092082;28;20044;-76
2021/09/03 10:58:45;;;;;;;9.23;5.28;;;30.00;65.40;;;;;;5091747;28;20048;-76
2021/09/03 11:01:34;;;;;;;8.40;5.03;;;29.80;66.40;;;;;;5091781;28;20047;-77
2021/09/03 11:04:04;;;;;;;6.18;4.05;;;29.60;64.80;;;;;;5091772;28;20109;-75
2021/09/03 11:06:33;;;;;;;6.43;5.50;;;29.70;65.80;;;;;;5091923;28;20077;-76
2021/09/03 11:09:02;;;;;;;10.05;4.40;;;29.30;65.20;;;;;;5091265;28;20051;-79
2021/09/03 11:11:31;;;;;;;5.90;4.13;;;28.40;66.50;;;;;;5091729;28;20044;-76
2021/09/03 11:14:00;;;;;;;9.68;6.00;;;27.60;66.90;;;;;;5091121;28;20089;-77
2021/09/03 11:16:31;;;;;;;6.15;4.82;;;27.60;70.90;;;;;;5091868;28;20048;-76
2021/09/03 11:19:03;;;;;;;4.47;3.97;;;28.20;69.60;;;;;;5091396;28;20093;-76
2021/09/03 11:21:31;;;;;;;6.80;4.57;;;29.10;66.60;;;;;;5091626;28;20496;-74
2021/09/03 11:23:58;;;;;;;12.43;4.43;;;30.30;65.10;;;;;;5091588;28;20407;-74
2021/09/03 11:26:28;;;;;;;5.75;4.22;;;30.30;65.10;;;;;;5091463;28;20557;-77
2021/09/03 11:28:56;;;;;;;8.10;4.68;;;30.80;62.90;;;;;;5090869;28;20058;-75
2021/09/03 11:31:23;;;;;;;10.02;5.88;;;30.90;62.40;;;;;;5091608;28;20415;-75
2021/09/03 11:33:50;;;;;;;6.28;5.13;;;31.50;63.10;;;;;;5091625;28;20044;-75
2021/09/03 11:36:16;;;;;;;5.03;3.55;;;31.50;59.50;;;;;;5091578;28;20110;-75
2021/09/03 11:38:43;;;;;;;6.45;5.10;;;31.10;63.00;;;;;;5090987;28;20052;-75
2021/09/03 11:41:10;;;;;;;5.30;3.80;;;31.60;61.00;;;;;;5091316;28;20105;-75
2021/09/03 11:43:37;;;;;;;8.40;5.90;;;32.00;58.90;;;;;;5091543;28;20040;-76
2021/09/03 11:46:16;;;;;;;6.68;4.95;;;31.90;58.90;;;;;;5091473;28;20048;-75
2021/09/03 11:48:43;;;;;;;4.70;4.05;;;32.40;57.30;;;;;;5090833;28;20052;-73
2021/09/03 11:51:16;;;;;;;5.38;4.88;;;32.80;56.60;;;;;;5091294;28;20048;-74
2021/09/03 11:53:43;;;;;;;6.65;3.95;;;32.80;57.90;;;;;;5091393;28;20074;-74
2021/09/03 11:56:13;;;;;;;4.97;4.22;;;33.10;57.10;;;;;;5091369;28;20044;-75
2021/09/03 11:58:40;;;;;;;6.53;5.85;;;32.80;57.10;;;;;;5090708;28;20449;-75
2021/09/03 12:01:07;;;;;;;6.90;4.22;;;33.20;56.00;;;;;;5091259;28;20101;-73
2021/09/03 12:03:37;;;;;;;6.70;5.25;;;32.60;55.50;;;;;;5091462;28;20051;-75
2021/09/03 12:06:05;;;;;;;6.78;4.47;;;30.90;57.90;;;;;;5091557;28;20044;-76
2021/09/03 12:08:36;;;;;;;6.95;4.45;;;30.70;57.50;;;;;;5090840;28;20055;-75
2021/09/03 12:11:04;;;;;;;5.68;5.05;;;30.10;59.00;;;;;;5091089;28;20132;-76
2021/09/03 12:13:33;;;;;;;6.72;3.95;;;29.90;58.90;;;;;;5091180;28;20046;-76
2021/09/03 12:16:03;;;;;;;7.55;5.68;;;31.00;60.00;;;;;;5091137;28;20432;-76
2021/09/03 12:18:31;;;;;;;7.07;4.18;;;31.70;56.50;;;;;;5090869;28;20102;-74
2021/09/03 12:21:02;;;;;;;8.25;4.18;;;30.90;57.60;;;;;;5090844;28;20044;-75
2021/09/03 12:23:33;;;;;;;;;;;31.20;57.00;;;;;;5091622;28;20117;-75
2021/09/03 12:26:05;;;;;;;6.38;4.82;;;31.60;56.20;;;;;;5091602;28;19943;-76
2021/09/03 12:28:32;;;;;;;5.03;4.18;;;31.90;58.00;;;;;;5094348;28;20093;-75
2021/09/03 12:31:04;;;;;;;4.15;3.75;;;32.40;57.40;;;;;;5094467;28;20044;-75
2021/09/03 12:33:32;;;;;;;6.40;4.80;;;32.60;55.60;;;;;;5094751;28;20101;-75
2021/09/03 12:36:06;;;;;;;7.00;4.22;;;33.10;55.90;;;;;;5094548;28;20050;-74
2021/09/03 12:38:36;;;;;;;6.50;4.00;;;33.20;53.60;;;;;;5094012;28;20044;-75
2021/09/03 12:41:08;;;;;;;4.27;3.87;;;32.80;54.00;;;;;;5094239;28;20424;-75
2021/09/03 12:43:35;;;;;;;5.82;4.53;;;32.60;52.70;;;;;;5094299;28;20040;-76